createdAt,value
2023-01-29T00:00:15.711Z,97164.03
2023-01-29T00:02:45.705Z,97166.50
2023-01-29T00:05:27.142Z,97157.81
2023-01-29T00:08:00.363Z,97163.81
2023-01-29T00:10:28.376Z,97161.28
2023-01-29T00:12:56.299Z,97157.22
2023-01-29T00:15:24.257Z,97162.16
2023-01-29T00:17:54.483Z,97163.91
2023-01-29T00:20:22.431Z,97172.31
2023-01-29T00:22:50.314Z,97174.81
2023-01-29T00:25:19.640Z,97182.34
2023-01-29T00:27:47.551Z,97185.69
2023-01-29T00:30:19.449Z,97187.44
2023-01-29T00:32:48.034Z,97183.19
2023-01-29T00:35:16.034Z,97179.72
2023-01-29T00:37:43.957Z,97178.94
2023-01-29T00:40:12.674Z,97185.59
2023-01-29T00:42:59.214Z,97185.66
2023-01-29T00:45:27.122Z,97178.81
2023-01-29T00:47:55.013Z,97185.59
2023-01-29T00:50:23.075Z,97188.19
2023-01-29T00:52:51.755Z,97185.72
2023-01-29T00:55:19.910Z,97184.88
2023-01-29T00:57:49.639Z,97192.53
2023-01-29T01:00:20.082Z,97192.34
2023-01-29T01:03:05.574Z,97191.59
2023-01-29T01:05:33.627Z,97184.00
2023-01-29T01:08:08.999Z,97183.31
2023-01-29T01:10:35.874Z,97184.22
2023-01-29T01:13:07.024Z,97181.72
2023-01-29T01:15:36.854Z,97181.59
2023-01-29T01:18:05.396Z,97185.72
2023-01-29T01:20:35.494Z,97181.63
2023-01-29T01:23:03.463Z,97180.75
2023-01-29T01:25:33.099Z,97174.97
2023-01-29T01:28:01.312Z,97167.47
2023-01-29T01:30:31.763Z,97169.16
2023-01-29T01:32:59.651Z,97175.81
2023-01-29T01:35:27.565Z,97176.75
2023-01-29T01:38:02.897Z,97173.34
2023-01-29T01:40:30.983Z,97174.19
2023-01-29T01:43:00.265Z,97182.50
2023-01-29T01:45:37.332Z,97180.84
2023-01-29T01:48:08.225Z,97180.94
2023-01-29T01:50:38.463Z,97175.91
2023-01-29T01:53:11.726Z,97168.44
2023-01-29T01:55:41.897Z,97175.94
2023-01-29T01:58:11.793Z,97173.50
2023-01-29T02:00:41.217Z,97175.91
2023-01-29T02:03:28.292Z,97175.13
2023-01-29T02:06:16.073Z,97177.66
2023-01-29T02:09:06.554Z,97178.50
2023-01-29T02:11:34.500Z,97190.19
2023-01-29T02:14:02.394Z,97190.22
2023-01-29T02:16:31.852Z,97186.88
2023-01-29T02:18:59.767Z,97181.06
2023-01-29T02:21:43.045Z,97186.09
2023-01-29T02:24:39.601Z,97178.53
2023-01-29T02:27:10.466Z,97189.41
2023-01-29T02:29:48.510Z,97187.72
2023-01-29T02:32:21.759Z,97196.97
2023-01-29T02:35:15.360Z,97200.25
2023-01-29T02:38:04.570Z,97202.75
2023-01-29T02:40:37.528Z,97191.91
2023-01-29T02:43:16.062Z,97200.31
2023-01-29T02:45:48.684Z,97204.44
2023-01-29T02:48:20.237Z,97196.97
2023-01-29T02:50:54.253Z,97204.50
2023-01-29T02:53:26.785Z,97212.00
2023-01-29T02:55:57.688Z,97220.34
2023-01-29T02:58:31.124Z,97213.69
2023-01-29T03:01:05.135Z,97212.00
2023-01-29T03:03:36.005Z,97198.69
2023-01-29T03:06:07.436Z,97208.69
2023-01-29T03:08:42.852Z,97206.22
2023-01-29T03:11:14.202Z,97202.88
2023-01-29T03:13:46.797Z,97209.56
2023-01-29T03:16:24.820Z,97200.41
2023-01-29T03:18:56.207Z,97199.56
2023-01-29T03:21:44.747Z,97201.25
2023-01-29T03:24:32.472Z,97203.78
2023-01-29T03:27:21.001Z,97197.09
2023-01-29T03:30:08.246Z,97202.09
2023-01-29T03:32:45.894Z,97200.47
2023-01-29T03:35:21.039Z,97201.25
2023-01-29T03:37:52.231Z,97201.25
2023-01-29T03:40:20.331Z,97192.06
2023-01-29T03:42:59.583Z,97193.66
2023-01-29T03:45:37.435Z,97191.94
2023-01-29T03:48:12.206Z,97176.09
2023-01-29T03:50:46.430Z,97162.72
2023-01-29T03:53:22.350Z,97158.44
2023-01-29T03:55:58.313Z,97162.50
2023-01-29T03:58:33.624Z,97165.81
2023-01-29T04:01:03.485Z,97166.59
2023-01-29T04:03:35.934Z,97158.22
2023-01-29T04:06:10.709Z,97154.88
2023-01-29T04:08:45.454Z,97161.47
2023-01-29T04:11:16.686Z,97158.94
2023-01-29T04:13:45.090Z,97157.25
2023-01-29T04:16:16.920Z,97158.91
2023-01-29T04:18:47.577Z,97158.06
2023-01-29T04:21:16.177Z,97161.34
2023-01-29T04:23:46.470Z,97162.19
2023-01-29T04:26:26.530Z,97165.59
2023-01-29T04:29:06.236Z,97168.94
2023-01-29T04:31:39.267Z,97165.69
2023-01-29T04:34:14.380Z,97167.44
2023-01-29T04:36:49.406Z,97170.81
2023-01-29T04:39:21.047Z,97172.50
2023-01-29T04:41:54.080Z,97178.41
2023-01-29T04:44:26.747Z,97183.47
2023-01-29T04:47:07.227Z,97174.34
2023-01-29T04:49:43.740Z,97176.81
2023-01-29T04:52:18.333Z,97171.00
2023-01-29T04:54:55.510Z,97176.84
2023-01-29T04:57:30.787Z,97171.88
2023-01-29T05:00:03.381Z,97171.84
2023-01-29T05:02:33.147Z,97181.81
2023-01-29T05:05:02.674Z,97178.63
2023-01-29T05:07:31.786Z,97177.81
2023-01-29T05:09:59.754Z,97177.81
2023-01-29T05:12:30.251Z,97177.72
2023-01-29T05:15:01.891Z,97176.00
2023-01-29T05:17:30.063Z,97169.41
2023-01-29T05:19:58.375Z,97168.53
2023-01-29T05:22:28.602Z,97161.91
2023-01-29T05:24:56.524Z,97158.69
2023-01-29T05:27:47.861Z,97147.88
2023-01-29T05:30:18.292Z,97144.53
2023-01-29T05:32:47.527Z,97148.69
2023-01-29T05:35:15.480Z,97147.00
2023-01-29T05:37:47.088Z,97134.53
2023-01-29T05:40:17.376Z,97132.00
2023-01-29T05:42:52.972Z,97130.34
2023-01-29T05:45:21.334Z,97132.84
2023-01-29T05:47:49.385Z,97128.72
2023-01-29T05:50:18.067Z,97129.53
2023-01-29T05:52:47.515Z,97145.41
2023-01-29T05:55:17.761Z,97142.88
2023-01-29T05:57:45.649Z,97146.19
2023-01-29T06:00:22.057Z,97145.38
2023-01-29T06:02:50.307Z,97150.38
2023-01-29T06:05:18.339Z,97147.03
2023-01-29T06:07:47.682Z,97149.53
2023-01-29T06:10:17.342Z,97156.16
2023-01-29T06:12:45.698Z,97143.72
2023-01-29T06:15:15.389Z,97155.41
2023-01-29T06:17:43.843Z,97153.72
2023-01-29T06:20:12.744Z,97151.25
2023-01-29T06:22:40.633Z,97145.38
2023-01-29T06:25:10.886Z,97145.41
2023-01-29T06:27:41.685Z,97152.94
2023-01-29T06:30:10.740Z,97158.75
2023-01-29T06:32:38.711Z,97157.03
2023-01-29T06:35:07.727Z,97159.59
2023-01-29T06:37:35.605Z,97162.09
2023-01-29T06:40:12.992Z,97152.91
2023-01-29T06:42:42.252Z,97149.56
2023-01-29T06:45:11.533Z,97149.59
2023-01-29T06:47:39.435Z,97151.28
2023-01-29T06:50:07.842Z,97135.41
2023-01-29T06:52:38.010Z,97126.25
2023-01-29T06:55:06.870Z,97127.09
2023-01-29T06:57:34.774Z,97113.78
2023-01-29T07:00:06.377Z,97107.94
2023-01-29T07:02:34.277Z,97111.28
2023-01-29T07:05:02.144Z,97114.59
2023-01-29T07:07:31.575Z,97116.25
2023-01-29T07:09:59.545Z,97117.09
2023-01-29T07:12:27.482Z,97114.59
2023-01-29T07:14:55.381Z,97118.75
2023-01-29T07:17:26.761Z,97116.28
2023-01-29T07:19:54.646Z,97117.94
2023-01-29T07:22:24.471Z,97108.78
2023-01-29T07:24:52.410Z,97108.78
2023-01-29T07:27:20.346Z,97102.94
2023-01-29T07:29:48.235Z,97097.06
2023-01-29T07:32:18.149Z,97102.03
2023-01-29T07:34:47.462Z,97100.44
2023-01-29T07:37:15.351Z,97117.88
2023-01-29T07:39:43.424Z,97125.41
2023-01-29T07:42:11.318Z,97112.91
2023-01-29T07:44:39.242Z,97107.06
2023-01-29T07:47:09.488Z,97097.91
2023-01-29T07:49:39.794Z,97098.56
2023-01-29T07:52:09.116Z,97095.72
2023-01-29T07:54:37.000Z,97097.13
2023-01-29T07:57:07.362Z,97096.97
2023-01-29T07:59:35.322Z,97089.38
2023-01-29T08:02:03.217Z,97091.78
2023-01-29T08:04:31.190Z,97092.53
2023-01-29T08:06:59.063Z,97096.59
2023-01-29T08:09:35.450Z,97092.16
2023-01-29T08:12:03.629Z,97089.25
2023-01-29T08:14:31.621Z,97090.88
2023-01-29T08:16:59.519Z,97096.88
2023-01-29T08:19:27.464Z,97106.13
2023-01-29T08:21:55.376Z,97105.06
2023-01-29T08:24:28.219Z,97098.34
2023-01-29T08:27:05.498Z,97104.91
2023-01-29T08:29:33.375Z,97106.50
2023-01-29T08:32:03.426Z,97119.84
2023-01-29T08:34:32.489Z,97130.94
2023-01-29T08:37:03.104Z,97133.31
2023-01-29T08:39:34.424Z,97140.88
2023-01-29T08:42:02.514Z,97147.53
2023-01-29T08:44:31.787Z,97145.03
2023-01-29T08:46:59.677Z,97149.09
2023-01-29T08:49:27.546Z,97157.97
2023-01-29T08:51:56.894Z,97167.47
2023-01-29T08:54:24.936Z,97155.09
2023-01-29T08:56:52.964Z,97176.69
2023-01-29T08:59:22.839Z,97171.63
2023-01-29T09:01:52.108Z,97183.03
2023-01-29T09:04:19.991Z,97183.09
2023-01-29T09:06:47.897Z,97180.75
2023-01-29T09:09:15.884Z,97194.25
2023-01-29T09:11:44.586Z,97184.38
2023-01-29T09:14:14.553Z,97181.75
2023-01-29T09:16:42.541Z,97185.25
2023-01-29T09:19:12.047Z,97190.06
2023-01-29T09:21:39.940Z,97190.56
2023-01-29T09:24:08.046Z,97198.19
2023-01-29T09:26:36.945Z,97195.75
2023-01-29T09:29:04.850Z,97194.75
2023-01-29T09:31:34.559Z,97196.41
2023-01-29T09:34:02.503Z,97193.88
2023-01-29T09:36:31.779Z,97195.56
2023-01-29T09:38:59.893Z,97193.19
2023-01-29T09:41:38.523Z,97190.66
2023-01-29T09:44:15.738Z,97186.38
2023-01-29T09:46:46.072Z,97189.03
2023-01-29T09:49:17.109Z,97193.19
2023-01-29T09:51:52.533Z,97184.09
2023-01-29T09:54:24.718Z,97191.34
2023-01-29T09:56:55.655Z,97196.78
2023-01-29T09:59:24.285Z,97184.34
2023-01-29T10:02:00.555Z,97191.94
2023-01-29T10:04:46.523Z,97200.28
2023-01-29T10:07:29.009Z,97199.38
2023-01-29T10:10:18.792Z,97200.13
2023-01-29T10:13:04.636Z,97193.94
2023-01-29T10:15:56.909Z,97190.84
2023-01-29T10:18:57.315Z,97197.91
2023-01-29T10:22:15.996Z,97185.72
2023-01-29T10:24:51.859Z,97185.59
2023-01-29T10:27:20.188Z,97185.22
2023-01-29T10:29:50.431Z,97190.38
2023-01-29T10:32:20.338Z,97194.59
2023-01-29T10:34:51.220Z,97186.69
2023-01-29T10:37:21.596Z,97185.50
2023-01-29T10:39:53.097Z,97182.84
2023-01-29T10:42:27.606Z,97186.75
2023-01-29T10:45:07.290Z,97175.59
2023-01-29T10:47:55.637Z,97186.09
2023-01-29T10:50:35.608Z,97182.59
2023-01-29T10:53:21.144Z,97183.25
2023-01-29T10:56:00.350Z,97172.84
2023-01-29T10:58:34.043Z,97173.19
2023-01-29T11:01:02.074Z,97170.28
2023-01-29T11:03:31.569Z,97172.88
2023-01-29T11:06:07.881Z,97163.69
2023-01-29T11:08:39.668Z,97164.41
2023-01-29T11:11:11.018Z,97165.97
2023-01-29T11:13:42.614Z,97162.84
2023-01-29T11:16:11.108Z,97144.34
2023-01-29T11:18:58.868Z,97141.81
2023-01-29T11:21:30.556Z,97131.84
2023-01-29T11:24:11.250Z,97126.69
2023-01-29T11:26:42.207Z,97123.28
2023-01-29T11:29:32.121Z,97113.28
2023-01-29T11:32:03.550Z,97116.72
2023-01-29T11:34:32.269Z,97111.25
2023-01-29T11:37:01.601Z,97111.25
2023-01-29T11:39:31.237Z,97098.50
2023-01-29T11:42:04.750Z,97106.88
2023-01-29T11:44:39.520Z,97097.28
2023-01-29T11:47:13.851Z,97083.84
2023-01-29T11:49:46.052Z,97083.50
2023-01-29T11:52:14.952Z,97068.50
2023-01-29T11:54:48.856Z,97071.31
2023-01-29T11:57:26.082Z,97061.19
2023-01-29T11:59:54.807Z,97065.00
2023-01-29T12:02:30.834Z,97052.69
2023-01-29T12:05:01.493Z,97062.50
2023-01-29T12:07:29.722Z,97065.03
2023-01-29T12:09:58.889Z,97051.06
2023-01-29T12:12:33.855Z,97051.69
2023-01-29T12:15:21.889Z,97045.91
2023-01-29T12:17:59.934Z,97045.25
2023-01-29T12:20:34.289Z,97038.53
2023-01-29T12:23:08.877Z,97030.31
2023-01-29T12:25:43.351Z,97031.41
2023-01-29T12:28:23.841Z,97042.13
2023-01-29T12:30:59.358Z,97033.53
2023-01-29T12:33:45.313Z,97028.66
2023-01-29T12:36:16.819Z,97023.41
2023-01-29T12:38:46.141Z,97018.03
2023-01-29T12:41:26.043Z,97019.28
2023-01-29T12:43:57.611Z,97012.16
2023-01-29T12:46:28.641Z,97003.28
2023-01-29T12:48:58.311Z,97012.41
2023-01-29T12:51:29.212Z,97008.13
2023-01-29T12:54:00.196Z,97005.50
2023-01-29T12:56:30.493Z,96999.63
2023-01-29T12:59:02.838Z,96989.25
2023-01-29T13:01:34.773Z,96991.94
2023-01-29T13:04:05.028Z,96985.88
2023-01-29T13:06:36.406Z,96989.38
2023-01-29T13:09:06.167Z,96977.50
2023-01-29T13:11:38.265Z,96974.63
2023-01-29T13:14:10.703Z,96964.72
2023-01-29T13:16:42.124Z,96967.78
2023-01-29T13:19:19.022Z,96971.03
2023-01-29T13:21:49.603Z,96968.31
2023-01-29T13:24:19.875Z,96967.81
2023-01-29T13:26:48.709Z,96971.88
2023-01-29T13:29:24.044Z,96969.69
2023-01-29T13:31:54.589Z,96967.25
2023-01-29T13:34:26.938Z,96979.69
2023-01-29T13:36:57.152Z,96975.88
2023-01-29T13:39:29.912Z,96978.16
2023-01-29T13:41:59.806Z,96980.75
2023-01-29T13:44:33.192Z,96979.03
2023-01-29T13:47:02.963Z,96983.88
2023-01-29T13:49:38.867Z,96981.28
2023-01-29T13:52:20.787Z,96985.69
2023-01-29T13:54:54.540Z,96978.06
2023-01-29T13:57:49.982Z,96972.78
2023-01-29T14:01:02.343Z,96984.59
2023-01-29T14:04:05.995Z,96982.22
2023-01-29T14:06:44.014Z,96979.59
2023-01-29T14:09:57.148Z,96979.19
2023-01-29T14:12:37.772Z,96977.66
2023-01-29T14:15:20.700Z,96973.56
2023-01-29T14:18:21.365Z,96978.75
2023-01-29T14:21:04.980Z,96965.16
2023-01-29T14:23:41.625Z,96965.97
2023-01-29T14:26:33.763Z,96966.94
2023-01-29T14:29:05.082Z,96962.53
2023-01-29T14:31:38.753Z,96957.69
2023-01-29T14:34:08.978Z,96952.03
2023-01-29T14:36:42.315Z,96948.72
2023-01-29T14:39:22.019Z,96953.00
2023-01-29T14:41:51.129Z,96954.91
2023-01-29T14:44:57.114Z,96953.31
2023-01-29T14:48:13.768Z,96948.28
2023-01-29T14:50:50.017Z,96954.94
2023-01-29T14:53:40.249Z,96954.94
2023-01-29T14:56:28.209Z,96960.88
2023-01-29T14:58:58.381Z,96970.97
2023-01-29T15:01:31.673Z,96966.13
2023-01-29T15:04:01.840Z,96968.56
2023-01-29T15:06:39.923Z,96967.75
2023-01-29T15:09:14.360Z,96955.31
2023-01-29T15:11:50.178Z,96951.34
2023-01-29T15:14:24.901Z,96958.88
2023-01-29T15:17:03.871Z,96958.22
2023-01-29T15:19:38.742Z,96950.66
2023-01-29T15:22:09.232Z,96954.88
2023-01-29T15:24:39.605Z,96959.13
2023-01-29T15:27:08.745Z,96970.03
2023-01-29T15:29:38.289Z,96966.72
2023-01-29T15:32:07.105Z,96967.47
2023-01-29T15:34:35.345Z,96970.22
2023-01-29T15:37:05.147Z,96974.25
2023-01-29T15:39:34.213Z,96972.59
2023-01-29T15:42:21.740Z,96989.47
2023-01-29T15:44:49.723Z,96990.41
2023-01-29T15:47:17.669Z,96996.28
2023-01-29T15:49:49.101Z,96990.50
2023-01-29T15:52:19.770Z,96992.13
2023-01-29T15:54:47.937Z,96989.59
2023-01-29T15:57:22.523Z,96989.63
2023-01-29T15:59:54.984Z,96992.22
2023-01-29T16:02:31.988Z,96983.94
2023-01-29T16:05:00.333Z,96983.84
2023-01-29T16:07:29.814Z,96978.75
2023-01-29T16:09:58.162Z,96984.00
2023-01-29T16:12:36.953Z,96982.38
2023-01-29T16:15:06.108Z,96979.00
2023-01-29T16:17:37.733Z,96976.41
2023-01-29T16:20:10.723Z,96983.19
2023-01-29T16:22:39.068Z,96979.84
2023-01-29T16:25:09.185Z,96988.16
2023-01-29T16:27:38.493Z,96987.50
2023-01-29T16:30:09.413Z,96997.53
2023-01-29T16:32:39.544Z,97003.34
2023-01-29T16:35:08.351Z,96995.09
2023-01-29T16:37:37.304Z,96989.34
2023-01-29T16:40:14.631Z,97001.94
2023-01-29T16:42:43.957Z,96998.59
2023-01-29T16:45:27.770Z,96990.28
2023-01-29T16:48:02.551Z,96991.13
2023-01-29T16:50:46.290Z,96995.41
2023-01-29T16:53:24.477Z,96999.53
2023-01-29T16:55:53.446Z,96999.47
2023-01-29T16:58:23.955Z,96996.91
2023-01-29T17:00:54.443Z,96995.19
2023-01-29T17:03:23.080Z,96988.47
2023-01-29T17:05:51.689Z,96981.81
2023-01-29T17:08:23.264Z,96988.53
2023-01-29T17:10:51.461Z,96988.53
2023-01-29T17:13:26.779Z,96994.41
2023-01-29T17:15:55.089Z,96979.38
2023-01-29T17:18:39.891Z,96976.06
2023-01-29T17:21:07.815Z,96980.34
2023-01-29T17:23:35.797Z,96977.78
2023-01-29T17:26:06.894Z,96979.41
2023-01-29T17:28:36.195Z,96974.44
2023-01-29T17:31:06.672Z,96972.03
2023-01-29T17:33:35.518Z,96979.59
2023-01-29T17:36:07.018Z,96982.91
2023-01-29T17:38:37.105Z,96990.31
2023-01-29T17:41:07.987Z,96987.84
2023-01-29T17:43:38.501Z,96991.25
2023-01-29T17:46:06.470Z,96987.13
2023-01-29T17:48:34.412Z,96987.09
2023-01-29T17:51:04.537Z,96982.09
2023-01-29T17:53:44.816Z,96977.91
2023-01-29T17:56:21.025Z,96986.22
2023-01-29T17:58:50.354Z,96986.25
2023-01-29T18:01:22.408Z,96988.72
2023-01-29T18:03:50.361Z,96975.31
2023-01-29T18:06:23.314Z,96968.69
2023-01-29T18:08:51.310Z,96968.69
2023-01-29T18:11:22.061Z,96963.72
2023-01-29T18:13:51.390Z,96970.41
2023-01-29T18:16:21.911Z,96965.41
2023-01-29T18:18:50.283Z,96956.25
2023-01-29T18:21:18.602Z,96948.75
2023-01-29T18:23:46.529Z,96951.22
2023-01-29T18:26:17.566Z,96947.09
2023-01-29T18:28:46.620Z,96941.25
2023-01-29T18:31:15.893Z,96955.44
2023-01-29T18:33:43.829Z,96950.41
2023-01-29T18:36:11.753Z,96949.63
2023-01-29T18:38:39.927Z,96942.97
2023-01-29T18:41:10.543Z,96938.72
2023-01-29T18:43:38.535Z,96933.72
2023-01-29T18:46:07.521Z,96937.91
2023-01-29T18:48:37.250Z,96936.28
2023-01-29T18:51:05.571Z,96937.16
2023-01-29T18:53:33.991Z,96931.19
2023-01-29T18:56:04.242Z,96936.16
2023-01-29T18:58:36.765Z,96934.53
2023-01-29T19:01:10.460Z,96931.94
2023-01-29T19:03:40.539Z,96929.53
2023-01-29T19:06:12.775Z,96932.91
2023-01-29T19:08:42.899Z,96934.56
2023-01-29T19:11:12.598Z,96931.19
2023-01-29T19:13:40.915Z,96929.50
2023-01-29T19:16:09.992Z,96914.34
2023-01-29T19:18:39.272Z,96913.50
2023-01-29T19:21:08.943Z,96908.53
2023-01-29T19:23:36.871Z,96909.41
2023-01-29T19:26:05.191Z,96903.59
2023-01-29T19:28:33.180Z,96894.34
2023-01-29T19:31:02.587Z,96901.84
2023-01-29T19:33:30.555Z,96897.69
2023-01-29T19:36:00.304Z,96894.31
2023-01-29T19:38:28.746Z,96883.47
2023-01-29T19:40:58.917Z,96886.94
2023-01-29T19:43:30.430Z,96882.03
2023-01-29T19:46:01.944Z,96875.41
2023-01-29T19:48:29.912Z,96892.13
2023-01-29T19:51:02.561Z,96883.78
2023-01-29T19:53:31.223Z,96886.28
2023-01-29T19:56:02.830Z,96884.59
2023-01-29T19:58:31.171Z,96883.75
2023-01-29T20:01:00.158Z,96874.47
2023-01-29T20:03:29.979Z,96879.47
2023-01-29T20:06:03.261Z,96870.25
2023-01-29T20:08:31.670Z,96871.13
2023-01-29T20:11:02.391Z,96867.75
2023-01-29T20:13:31.120Z,96863.63
2023-01-29T20:16:02.950Z,96868.50
2023-01-29T20:18:31.066Z,96861.88
2023-01-29T20:21:03.184Z,96869.34
2023-01-29T20:23:37.516Z,96859.25
2023-01-29T20:26:07.197Z,96873.47
2023-01-29T20:28:37.333Z,96872.66
2023-01-29T20:31:06.216Z,96874.34
2023-01-29T20:33:34.731Z,96877.63
2023-01-29T20:36:06.706Z,96867.59
2023-01-29T20:38:35.064Z,96866.75
2023-01-29T20:41:07.810Z,96869.25
2023-01-29T20:43:36.293Z,96867.59
2023-01-29T20:46:04.941Z,96857.56
2023-01-29T20:48:33.332Z,96861.63
2023-01-29T20:51:08.014Z,96850.81
2023-01-29T20:53:36.219Z,96855.00
2023-01-29T20:56:04.967Z,96863.38
2023-01-29T20:58:33.501Z,96849.91
2023-01-29T21:01:01.652Z,96840.72
2023-01-29T21:03:29.615Z,96848.38
2023-01-29T21:05:59.145Z,96852.56
2023-01-29T21:08:28.464Z,96850.81
2023-01-29T21:10:56.387Z,96846.69
2023-01-29T21:13:24.279Z,96849.38
2023-01-29T21:15:52.260Z,96840.91
2023-01-29T21:18:21.321Z,96850.94
2023-01-29T21:20:50.431Z,96841.75
2023-01-29T21:23:18.482Z,96845.13
2023-01-29T21:25:51.171Z,96846.72
2023-01-29T21:28:21.932Z,96848.44
2023-01-29T21:30:49.961Z,96840.84
2023-01-29T21:33:17.863Z,96841.72
2023-01-29T21:35:45.759Z,96844.19
2023-01-29T21:38:15.519Z,96830.81
2023-01-29T21:40:43.394Z,96835.00
2023-01-29T21:43:11.669Z,96829.19
2023-01-29T21:45:40.168Z,96825.00
2023-01-29T21:48:08.563Z,96822.47
2023-01-29T21:50:36.741Z,96814.19
2023-01-29T21:53:04.664Z,96830.91
2023-01-29T21:55:32.943Z,96822.50
2023-01-29T21:58:01.566Z,96830.03
2023-01-29T22:00:32.144Z,96829.22
2023-01-29T22:03:00.234Z,96823.31
2023-01-29T22:05:30.894Z,96833.31
2023-01-29T22:07:58.757Z,96830.91
2023-01-29T22:10:27.542Z,96830.06
2023-01-29T22:12:56.929Z,96828.44
2023-01-29T22:15:24.871Z,96827.56
2023-01-29T22:17:54.182Z,96828.44
2023-01-29T22:20:29.627Z,96825.97
2023-01-29T22:22:59.381Z,96818.47
2023-01-29T22:25:29.499Z,96810.16
2023-01-29T22:27:57.385Z,96807.59
2023-01-29T22:30:25.528Z,96805.16
2023-01-29T22:32:54.875Z,96800.94
2023-01-29T22:35:22.769Z,96799.19
2023-01-29T22:37:50.741Z,96795.09
2023-01-29T22:40:19.271Z,96790.94
2023-01-29T22:42:47.467Z,96785.06
2023-01-29T22:45:15.634Z,96780.84
2023-01-29T22:47:43.529Z,96780.91
2023-01-29T22:50:14.143Z,96778.47
2023-01-29T22:52:44.708Z,96778.44
2023-01-29T22:55:15.972Z,96772.66
2023-01-29T22:57:43.889Z,96770.94
2023-01-29T23:00:14.904Z,96770.16
2023-01-29T23:02:42.875Z,96781.00
2023-01-29T23:05:14.402Z,96765.97
2023-01-29T23:07:42.365Z,96762.66
2023-01-29T23:10:12.314Z,96765.91
2023-01-29T23:12:40.202Z,96763.34
2023-01-29T23:15:13.478Z,96759.25
2023-01-29T23:17:41.392Z,96758.34
2023-01-29T23:20:13.398Z,96758.53
2023-01-29T23:22:41.316Z,96750.91
2023-01-29T23:25:12.418Z,96753.53
2023-01-29T23:27:39.364Z,96757.78
2023-01-29T23:30:08.459Z,96745.19
2023-01-29T23:32:36.454Z,96746.81
2023-01-29T23:35:04.537Z,96748.53
2023-01-29T23:37:36.550Z,96746.69
2023-01-29T23:40:04.697Z,96739.16
2023-01-29T23:42:34.010Z,96735.69
2023-01-29T23:45:01.915Z,96727.44
2023-01-29T23:47:29.810Z,96734.91
2023-01-29T23:49:57.796Z,96730.66
2023-01-29T23:52:25.699Z,96733.25
2023-01-29T23:54:56.758Z,96725.69
2023-01-29T23:57:24.683Z,96724.88
2023-01-29T23:59:52.589Z,96721.56
